createdAt,value
2022-09-03T00:02:21.598Z,100.00
2022-09-03T00:04:57.455Z,100.00
2022-09-03T00:07:30.385Z,100.00
2022-09-03T00:10:00.091Z,100.00
2022-09-03T00:12:28.576Z,100.00
2022-09-03T00:14:58.212Z,100.00
2022-09-03T00:17:27.451Z,100.00
2022-09-03T00:19:59.462Z,100.00
2022-09-03T00:22:31.260Z,100.00
2022-09-03T00:25:01.125Z,100.00
2022-09-03T00:27:28.641Z,100.00
2022-09-03T00:30:01.200Z,100.00
2022-09-03T00:32:39.594Z,100.00
2022-09-03T00:35:09.176Z,100.00
2022-09-03T00:37:38.353Z,100.00
2022-09-03T00:40:08.116Z,100.00
2022-09-03T00:42:34.669Z,100.00
2022-09-03T00:45:15.837Z,100.00
2022-09-03T00:47:57.384Z,100.00
2022-09-03T00:50:34.017Z,100.00
2022-09-03T00:53:09.592Z,100.00
2022-09-03T00:55:58.872Z,100.00
2022-09-03T00:58:31.267Z,100.00
2022-09-03T01:00:57.734Z,100.00
2022-09-03T01:03:33.530Z,100.00
2022-09-03T01:06:07.816Z,100.00
2022-09-03T01:08:51.185Z,100.00
2022-09-03T01:11:26.844Z,100.00
2022-09-03T01:13:53.267Z,100.00
2022-09-03T01:16:22.849Z,100.00
2022-09-03T01:18:49.336Z,100.00
2022-09-03T01:21:27.723Z,100.00
2022-09-03T01:24:07.419Z,100.00
2022-09-03T01:26:52.497Z,100.00
2022-09-03T01:29:32.216Z,100.00
2022-09-03T01:32:05.020Z,100.00
2022-09-03T01:34:34.211Z,100.00
2022-09-03T01:37:00.692Z,100.00
2022-09-03T01:39:47.537Z,100.00
2022-09-03T01:42:23.728Z,100.00
2022-09-03T01:44:53.170Z,100.00
2022-09-03T01:47:49.839Z,100.00
2022-09-03T01:50:24.455Z,100.00
2022-09-03T01:53:09.856Z,100.00
2022-09-03T01:55:57.997Z,100.00
2022-09-03T01:58:28.525Z,100.00
2022-09-03T02:00:58.717Z,100.00
2022-09-03T02:03:27.390Z,100.00
2022-09-03T02:05:53.833Z,100.00
2022-09-03T02:08:20.883Z,100.00
2022-09-03T02:10:49.328Z,100.00
2022-09-03T02:13:22.857Z,100.00
2022-09-03T02:15:50.722Z,100.00
2022-09-03T02:18:28.860Z,100.00
2022-09-03T02:20:55.643Z,100.00
2022-09-03T02:23:24.701Z,100.00
2022-09-03T02:25:58.872Z,100.00
2022-09-03T02:28:26.444Z,100.00
2022-09-03T02:30:53.015Z,100.00
2022-09-03T02:33:19.621Z,100.00
2022-09-03T02:35:47.660Z,100.00
2022-09-03T02:38:17.056Z,100.00
2022-09-03T02:40:43.824Z,100.00
2022-09-03T02:43:14.910Z,100.00
2022-09-03T02:45:46.343Z,100.00
2022-09-03T02:48:13.993Z,100.00
2022-09-03T02:50:41.243Z,100.00
2022-09-03T02:53:07.920Z,100.00
2022-09-03T02:55:34.437Z,100.00
2022-09-03T02:58:01.444Z,100.00
2022-09-03T03:00:28.733Z,100.00
2022-09-03T03:02:55.699Z,100.00
2022-09-03T03:05:26.632Z,100.00
2022-09-03T03:07:53.147Z,100.00
2022-09-03T03:10:19.597Z,100.00
2022-09-03T03:12:46.093Z,100.00
2022-09-03T03:15:12.556Z,100.00
2022-09-03T03:17:38.992Z,100.00
2022-09-03T03:20:05.594Z,100.00
2022-09-03T03:22:32.119Z,100.00
2022-09-03T03:24:58.602Z,100.00
2022-09-03T03:27:25.138Z,100.00
2022-09-03T03:29:52.267Z,100.00
2022-09-03T03:32:18.719Z,100.00
2022-09-03T03:34:45.162Z,100.00
2022-09-03T03:37:11.749Z,100.00
2022-09-03T03:39:38.349Z,100.00
2022-09-03T03:42:04.933Z,100.00
2022-09-03T03:44:33.197Z,100.00
2022-09-03T03:46:59.698Z,100.00
2022-09-03T03:49:26.127Z,100.00
2022-09-03T03:51:52.580Z,100.00
2022-09-03T03:54:19.613Z,100.00
2022-09-03T03:56:46.760Z,100.00
2022-09-03T03:59:22.052Z,100.00
2022-09-03T04:01:50.847Z,100.00
2022-09-03T04:04:17.468Z,100.00
2022-09-03T04:06:44.012Z,100.00
2022-09-03T04:09:10.469Z,100.00
2022-09-03T04:11:37.025Z,100.00
2022-09-03T04:14:03.533Z,100.00
2022-09-03T04:16:30.018Z,100.00
2022-09-03T04:18:56.889Z,100.00
2022-09-03T04:21:24.423Z,100.00
2022-09-03T04:23:52.680Z,100.00
2022-09-03T04:26:23.221Z,100.00
2022-09-03T04:28:49.714Z,100.00
2022-09-03T04:31:17.200Z,100.00
2022-09-03T04:33:43.761Z,100.00
2022-09-03T04:36:14.719Z,100.00
2022-09-03T04:38:42.428Z,100.00
2022-09-03T04:41:10.140Z,100.00
2022-09-03T04:43:36.664Z,100.00
2022-09-03T04:46:04.960Z,100.00
2022-09-03T04:48:32.423Z,100.00
2022-09-03T04:51:06.169Z,100.00
2022-09-03T04:53:38.978Z,100.00
2022-09-03T04:56:14.659Z,100.00
2022-09-03T04:58:43.200Z,100.00
2022-09-03T05:01:18.303Z,100.00
2022-09-03T05:03:45.487Z,100.00
2022-09-03T05:06:12.337Z,100.00
2022-09-03T05:08:38.831Z,100.00
2022-09-03T05:11:06.075Z,100.00
2022-09-03T05:13:33.757Z,100.00
2022-09-03T05:16:04.355Z,100.00
2022-09-03T05:18:30.861Z,100.00
2022-09-03T05:21:00.660Z,99.40
2022-09-03T05:23:28.077Z,84.05
2022-09-03T05:25:58.543Z,72.18
2022-09-03T05:28:27.696Z,66.99
2022-09-03T05:31:05.928Z,63.84
2022-09-03T05:33:35.987Z,61.64
2022-09-03T05:36:03.436Z,61.22
2022-09-03T05:38:29.972Z,59.21
2022-09-03T05:41:00.866Z,56.68
2022-09-03T05:43:27.693Z,54.31
2022-09-03T05:46:13.456Z,50.79
2022-09-03T05:48:40.536Z,47.74
2022-09-03T05:51:08.583Z,45.94
2022-09-03T05:53:36.235Z,48.41
2022-09-03T05:56:04.263Z,44.75
2022-09-03T05:58:31.486Z,44.40
2022-09-03T06:00:57.968Z,41.84
2022-09-03T06:03:24.848Z,41.60
2022-09-03T06:05:52.089Z,40.34
2022-09-03T06:08:19.055Z,38.45
2022-09-03T06:10:45.532Z,39.42
2022-09-03T06:13:12.032Z,40.84
2022-09-03T06:15:38.575Z,41.01
2022-09-03T06:18:05.295Z,42.29
2022-09-03T06:20:36.401Z,39.19
2022-09-03T06:23:04.235Z,39.21
2022-09-03T06:25:31.866Z,40.61
2022-09-03T06:27:59.133Z,40.34
2022-09-03T06:30:26.773Z,45.66
2022-09-03T06:32:54.151Z,41.55
2022-09-03T06:35:20.755Z,39.74
2022-09-03T06:37:47.238Z,43.08
2022-09-03T06:40:14.218Z,41.96
2022-09-03T06:42:41.498Z,37.95
2022-09-03T06:45:12.373Z,39.82
2022-09-03T06:47:38.875Z,43.07
2022-09-03T06:50:05.567Z,40.82
2022-09-03T06:52:32.103Z,40.08
2022-09-03T06:54:58.563Z,38.81
2022-09-03T06:57:25.041Z,44.47
2022-09-03T06:59:51.494Z,41.86
2022-09-03T07:02:19.310Z,39.05
2022-09-03T07:04:45.963Z,38.03
2022-09-03T07:07:16.301Z,40.17
2022-09-03T07:09:46.409Z,42.90
2022-09-03T07:12:16.925Z,45.12
2022-09-03T07:14:43.359Z,41.56
2022-09-03T07:17:09.814Z,45.78
2022-09-03T07:19:36.280Z,42.31
2022-09-03T07:22:02.730Z,41.69
2022-09-03T07:24:29.206Z,38.67
2022-09-03T07:26:57.137Z,39.13
2022-09-03T07:29:23.819Z,40.11
2022-09-03T07:31:51.903Z,40.75
2022-09-03T07:34:20.430Z,39.70
2022-09-03T07:36:51.174Z,38.12
2022-09-03T07:39:18.466Z,37.35
2022-09-03T07:41:46.147Z,40.06
2022-09-03T07:44:15.350Z,44.76
2022-09-03T07:46:43.460Z,39.80
2022-09-03T07:49:10.665Z,39.73
2022-09-03T07:51:38.552Z,39.50
2022-09-03T07:54:08.284Z,39.59
2022-09-03T07:56:35.991Z,39.17
2022-09-03T07:59:03.705Z,39.27
2022-09-03T08:01:33.465Z,46.07
2022-09-03T08:04:00.992Z,42.17
2022-09-03T08:06:28.803Z,45.96
2022-09-03T08:09:05.362Z,45.55
2022-09-03T08:11:32.935Z,44.63
2022-09-03T08:14:03.394Z,45.92
2022-09-03T08:16:31.126Z,47.22
2022-09-03T08:18:57.667Z,46.23
2022-09-03T08:21:24.736Z,47.92
2022-09-03T08:23:52.207Z,46.73
2022-09-03T08:26:20.177Z,49.09
2022-09-03T08:28:47.138Z,49.40
2022-09-03T08:31:15.226Z,48.02
2022-09-03T08:33:43.146Z,46.51
2022-09-03T08:36:13.769Z,48.38
2022-09-03T08:38:43.296Z,47.73
2022-09-03T08:41:15.992Z,47.54
2022-09-03T08:43:48.820Z,52.58
2022-09-03T08:46:16.689Z,49.72
2022-09-03T08:48:43.204Z,50.87
2022-09-03T08:51:11.145Z,50.93
2022-09-03T08:53:45.346Z,54.12
2022-09-03T08:56:14.909Z,51.72
2022-09-03T08:58:44.841Z,49.48
2022-09-03T09:01:31.491Z,51.70
2022-09-03T09:04:13.169Z,49.88
2022-09-03T09:06:39.608Z,51.69
2022-09-03T09:09:25.037Z,50.94
2022-09-03T09:12:03.534Z,52.21
2022-09-03T09:14:45.634Z,51.41
2022-09-03T09:17:28.114Z,48.94
2022-09-03T09:20:04.766Z,50.15
2022-09-03T09:22:35.203Z,48.83
2022-09-03T09:25:05.376Z,50.74
2022-09-03T09:27:32.512Z,46.94
2022-09-03T09:30:01.935Z,49.47
2022-09-03T09:32:28.963Z,46.59
2022-09-03T09:34:55.456Z,46.44
2022-09-03T09:37:22.133Z,47.00
2022-09-03T09:39:59.203Z,48.58
2022-09-03T09:42:26.044Z,47.97
2022-09-03T09:44:52.743Z,46.31
2022-09-03T09:47:28.004Z,45.94
2022-09-03T09:50:02.696Z,47.16
2022-09-03T09:52:31.561Z,50.15
2022-09-03T09:55:14.735Z,48.89
2022-09-03T09:57:41.227Z,46.83
2022-09-03T10:00:13.230Z,45.39
2022-09-03T10:02:42.383Z,45.33
2022-09-03T10:05:20.126Z,46.92
2022-09-03T10:07:56.944Z,48.71
2022-09-03T10:10:23.517Z,45.56
2022-09-03T10:13:19.494Z,45.21
2022-09-03T10:16:04.598Z,47.38
2022-09-03T10:18:31.509Z,49.14
2022-09-03T10:21:07.699Z,44.13
2022-09-03T10:23:39.594Z,45.55
2022-09-03T10:26:07.539Z,45.41
2022-09-03T10:28:41.414Z,44.54
2022-09-03T10:31:26.386Z,46.46
2022-09-03T10:34:13.659Z,44.27
2022-09-03T10:36:42.980Z,45.65
2022-09-03T10:39:42.846Z,45.85
2022-09-03T10:42:12.616Z,44.46
2022-09-03T10:45:00.867Z,42.50
2022-09-03T10:47:36.649Z,42.93
2022-09-03T10:50:15.141Z,41.86
2022-09-03T10:52:59.292Z,43.37
2022-09-03T10:55:38.169Z,42.39
2022-09-03T10:58:08.015Z,42.79
2022-09-03T11:00:36.999Z,41.99
2022-09-03T11:03:22.154Z,40.29
2022-09-03T11:05:49.089Z,40.25
2022-09-03T11:08:18.793Z,41.41
2022-09-03T11:10:49.054Z,41.29
2022-09-03T11:13:28.628Z,40.86
2022-09-03T11:15:57.488Z,41.65
2022-09-03T11:18:27.786Z,39.63
2022-09-03T11:20:57.220Z,43.83
2022-09-03T11:23:25.696Z,41.01
2022-09-03T11:25:56.717Z,39.48
2022-09-03T11:28:45.164Z,42.15
2022-09-03T11:31:23.929Z,39.35
2022-09-03T11:33:56.581Z,39.80
2022-09-03T11:36:30.628Z,41.26
2022-09-03T11:38:57.255Z,40.46
2022-09-03T11:41:28.197Z,41.53
2022-09-03T11:43:55.106Z,40.38
2022-09-03T11:46:21.914Z,36.41
2022-09-03T11:48:52.217Z,38.53
2022-09-03T11:51:31.010Z,35.99
2022-09-03T11:54:03.515Z,37.37
2022-09-03T11:56:31.129Z,38.93
2022-09-03T11:59:07.427Z,37.28
2022-09-03T12:01:35.556Z,36.86
2022-09-03T12:04:04.800Z,38.00
2022-09-03T12:06:43.349Z,40.50
2022-09-03T12:09:28.785Z,37.44
2022-09-03T12:12:12.010Z,37.34
2022-09-03T12:14:44.515Z,39.43
2022-09-03T12:17:10.979Z,38.54
2022-09-03T12:19:37.502Z,41.89
2022-09-03T12:22:05.478Z,38.90
2022-09-03T12:24:37.784Z,37.20
2022-09-03T12:27:04.867Z,36.01
2022-09-03T12:29:31.827Z,37.03
2022-09-03T12:32:06.896Z,38.57
2022-09-03T12:34:33.429Z,36.69
2022-09-03T12:36:59.877Z,36.93
2022-09-03T12:42:19.689Z,37.78
2022-09-03T12:44:46.592Z,35.30
2022-09-03T12:50:07.025Z,34.47
2022-09-03T12:52:41.826Z,35.75
2022-09-03T12:55:14.350Z,38.79
2022-09-03T12:57:43.970Z,36.92
2022-09-03T13:00:13.787Z,35.53
2022-09-03T13:03:03.916Z,37.07
2022-09-03T13:05:33.587Z,35.38
2022-09-03T13:08:04.189Z,37.59
2022-09-03T13:10:32.408Z,34.43
2022-09-03T13:13:00.105Z,34.55
2022-09-03T13:15:26.737Z,34.96
2022-09-03T13:17:59.601Z,34.33
2022-09-03T13:20:33.149Z,34.74
2022-09-03T13:23:11.963Z,34.61
2022-09-03T13:25:38.386Z,33.61
2022-09-03T13:28:21.284Z,35.62
2022-09-03T13:30:54.551Z,35.43
2022-09-03T13:33:29.215Z,33.79
2022-09-03T13:36:02.086Z,33.83
2022-09-03T13:38:50.202Z,32.17
2022-09-03T13:41:19.747Z,34.82
2022-09-03T13:43:57.757Z,34.66
2022-09-03T13:46:28.465Z,35.95
2022-09-03T13:49:21.819Z,33.80
2022-09-03T13:51:57.263Z,33.58
2022-09-03T13:54:48.305Z,34.95
2022-09-03T13:57:17.004Z,36.08
2022-09-03T13:59:55.522Z,34.38
2022-09-03T14:02:33.063Z,35.05
2022-09-03T14:05:08.136Z,35.07
2022-09-03T14:07:35.469Z,35.09
2022-09-03T14:10:20.627Z,36.78
2022-09-03T14:13:02.421Z,37.52
2022-09-03T14:15:44.959Z,36.08
2022-09-03T14:18:35.854Z,37.65
2022-09-03T14:21:08.036Z,36.67
2022-09-03T14:23:45.932Z,38.62
2022-09-03T14:26:17.091Z,36.39
2022-09-03T14:28:46.892Z,36.68
2022-09-03T14:31:21.741Z,36.28
2022-09-03T14:33:48.225Z,36.34
2022-09-03T14:36:22.073Z,35.69
2022-09-03T14:39:07.175Z,35.86
2022-09-03T14:41:52.026Z,36.46
2022-09-03T14:44:24.595Z,35.74
2022-09-03T14:47:00.279Z,37.90
2022-09-03T14:49:38.239Z,37.30
2022-09-03T14:52:07.751Z,38.83
2022-09-03T14:55:12.829Z,38.15
2022-09-03T14:57:49.818Z,38.31
2022-09-03T15:00:21.244Z,37.56
2022-09-03T15:02:59.728Z,38.96
2022-09-03T15:05:44.926Z,38.90
2022-09-03T15:08:26.062Z,39.28
2022-09-03T15:10:57.676Z,39.62
2022-09-03T15:13:26.631Z,39.82
2022-09-03T15:16:12.240Z,39.37
2022-09-03T15:18:44.496Z,41.02
2022-09-03T15:21:35.352Z,41.12
2022-09-03T15:24:31.190Z,41.28
2022-09-03T15:27:12.677Z,41.10
2022-09-03T15:29:53.772Z,41.46
2022-09-03T15:32:38.900Z,41.83
2022-09-03T15:35:07.797Z,43.11
2022-09-03T15:37:42.934Z,45.47
2022-09-03T15:40:12.508Z,45.00
2022-09-03T15:42:41.086Z,44.13
2022-09-03T15:45:27.872Z,44.04
2022-09-03T15:48:05.663Z,44.45
2022-09-03T15:50:38.395Z,45.43
2022-09-03T15:53:25.341Z,45.07
2022-09-03T15:56:17.985Z,46.34
2022-09-03T15:58:52.920Z,45.48
2022-09-03T16:01:27.251Z,45.93
2022-09-03T16:03:56.138Z,46.66
2022-09-03T16:06:38.088Z,46.07
2022-09-03T16:09:22.998Z,45.61
2022-09-03T16:12:08.213Z,46.52
2022-09-03T16:14:34.648Z,47.07
2022-09-03T16:17:14.260Z,47.60
2022-09-03T16:19:40.694Z,47.07
2022-09-03T16:22:27.483Z,49.34
2022-09-03T16:24:59.261Z,48.50
2022-09-03T16:27:48.709Z,49.22
2022-09-03T16:30:22.526Z,49.17
2022-09-03T16:33:00.872Z,48.26
2022-09-03T16:35:50.686Z,49.80
2022-09-03T16:38:29.992Z,49.82
2022-09-03T16:41:02.507Z,50.88
2022-09-03T16:43:47.336Z,51.54
2022-09-03T16:46:25.994Z,51.20
2022-09-03T16:49:04.796Z,51.92
2022-09-03T16:52:06.801Z,53.83
2022-09-03T16:55:03.755Z,56.16
2022-09-03T16:57:30.222Z,56.92
2022-09-03T16:59:56.770Z,58.09
2022-09-03T17:02:41.085Z,58.18
2022-09-03T17:05:10.676Z,60.00
2022-09-03T17:07:56.963Z,60.29
2022-09-03T17:10:23.401Z,60.94
2022-09-03T17:13:03.387Z,62.38
2022-09-03T17:15:31.680Z,63.41
2022-09-03T17:18:12.330Z,64.57
2022-09-03T17:20:49.532Z,65.02
2022-09-03T17:23:16.542Z,65.41
2022-09-03T17:25:54.311Z,65.48
2022-09-03T17:28:30.572Z,66.47
2022-09-03T17:30:57.094Z,67.98
2022-09-03T17:33:37.810Z,68.22
2022-09-03T17:36:10.665Z,68.85
2022-09-03T17:39:01.874Z,69.31
2022-09-03T17:41:32.350Z,70.65
2022-09-03T17:44:11.196Z,71.00
2022-09-03T17:46:47.233Z,72.02
2022-09-03T17:49:22.749Z,72.16
2022-09-03T17:51:59.892Z,73.42
2022-09-03T17:54:26.320Z,75.75
2022-09-03T17:57:13.119Z,75.52
2022-09-03T17:59:51.243Z,76.00
2022-09-03T18:02:36.423Z,76.95
2022-09-03T18:05:17.163Z,76.58
2022-09-03T18:07:46.737Z,77.50
2022-09-03T18:10:13.170Z,77.00
2022-09-03T18:12:39.638Z,77.57
2022-09-03T18:15:15.246Z,78.81
2022-09-03T18:17:45.893Z,79.16
2022-09-03T18:20:32.347Z,79.68
2022-09-03T18:23:17.296Z,80.40
2022-09-03T18:26:04.149Z,80.53
2022-09-03T18:29:01.139Z,80.34
2022-09-03T18:31:46.259Z,81.59
2022-09-03T18:34:31.524Z,81.61
2022-09-03T18:37:17.640Z,82.31
2022-09-03T18:40:05.943Z,82.44
2022-09-03T18:43:10.078Z,82.26
2022-09-03T18:46:46.264Z,84.45
2022-09-03T18:49:19.781Z,84.48
2022-09-03T18:52:14.649Z,84.81
2022-09-03T18:55:08.264Z,85.96
2022-09-03T18:58:13.399Z,86.21
2022-09-03T19:01:03.249Z,86.59
2022-09-03T19:04:08.284Z,86.89
2022-09-03T19:06:53.162Z,87.51
2022-09-03T19:09:57.020Z,87.60
2022-09-03T19:12:58.755Z,89.03
2022-09-03T19:15:50.054Z,88.73
2022-09-03T19:18:35.161Z,89.41
2022-09-03T19:21:20.205Z,89.49
2022-09-03T19:24:05.258Z,88.34
2022-09-03T19:26:58.792Z,87.25
2022-09-03T19:29:59.125Z,86.83
2022-09-03T19:32:48.821Z,87.02
2022-09-03T19:35:36.396Z,86.89
2022-09-03T19:38:40.724Z,87.11
2022-09-03T19:41:37.313Z,88.00
2022-09-03T19:44:31.602Z,87.91
2022-09-03T19:47:17.683Z,87.94
2022-09-03T19:50:09.450Z,88.64
2022-09-03T19:52:54.327Z,88.98
2022-09-03T19:55:48.882Z,89.54
2022-09-03T19:58:43.642Z,89.05
2022-09-03T20:01:29.518Z,90.23
2022-09-03T20:04:15.234Z,89.61
2022-09-03T20:07:00.785Z,91.10
2022-09-03T20:09:48.175Z,91.85
2022-09-03T20:12:17.881Z,91.73
2022-09-03T20:14:44.356Z,92.40
2022-09-03T20:17:10.897Z,92.77
2022-09-03T20:19:47.589Z,93.47
2022-09-03T20:22:39.477Z,93.41
2022-09-03T20:25:18.246Z,93.38
2022-09-03T20:27:57.593Z,93.73
2022-09-03T20:30:32.031Z,94.99
2022-09-03T20:32:58.516Z,95.40
2022-09-03T20:35:28.139Z,95.24
2022-09-03T20:38:07.073Z,96.24
2022-09-03T20:40:41.285Z,97.27
2022-09-03T20:43:07.713Z,97.15
2022-09-03T20:46:00.602Z,97.79
2022-09-03T20:48:43.323Z,98.73
2022-09-03T20:51:21.810Z,99.16
2022-09-03T20:53:54.979Z,99.09
2022-09-03T20:56:37.034Z,100.00
2022-09-03T20:59:14.127Z,99.24
2022-09-03T21:01:58.870Z,99.23
2022-09-03T21:04:44.105Z,99.57
2022-09-03T21:07:13.794Z,100.00
2022-09-03T21:09:43.303Z,100.00
2022-09-03T21:12:09.808Z,100.00
2022-09-03T21:14:42.133Z,100.00
2022-09-03T21:17:19.818Z,100.00
2022-09-03T21:20:01.777Z,100.00
2022-09-03T21:22:44.184Z,100.00
2022-09-03T21:25:19.626Z,100.00
2022-09-03T21:27:52.913Z,100.00
2022-09-03T21:30:20.395Z,100.00
2022-09-03T21:33:01.394Z,100.00
2022-09-03T21:35:35.916Z,100.00
2022-09-03T21:38:02.400Z,100.00
2022-09-03T21:40:32.396Z,100.00
2022-09-03T21:43:08.307Z,100.00
2022-09-03T21:45:34.748Z,100.00
2022-09-03T21:48:14.444Z,100.00
2022-09-03T21:50:45.355Z,100.00
2022-09-03T21:53:32.735Z,100.00
2022-09-03T21:55:59.181Z,100.00
2022-09-03T21:58:34.905Z,100.00
2022-09-03T22:01:07.380Z,100.00
2022-09-03T22:03:34.184Z,100.00
2022-09-03T22:06:07.941Z,100.00
2022-09-03T22:08:34.409Z,100.00
2022-09-03T22:11:08.855Z,100.00
2022-09-03T22:13:58.938Z,100.00
2022-09-03T22:16:35.169Z,100.00
2022-09-03T22:19:01.700Z,100.00
2022-09-03T22:21:50.236Z,100.00
2022-09-03T22:24:42.983Z,100.00
2022-09-03T22:27:20.408Z,100.00
2022-09-03T22:29:46.963Z,100.00
2022-09-03T22:32:36.311Z,100.00
2022-09-03T22:35:12.014Z,100.00
2022-09-03T22:37:57.413Z,100.00
2022-09-03T22:40:26.057Z,100.00
2022-09-03T22:43:03.300Z,100.00
2022-09-03T22:45:44.151Z,100.00
2022-09-03T22:48:20.141Z,100.00
2022-09-03T22:50:57.375Z,100.00
2022-09-03T22:53:39.022Z,100.00
2022-09-03T22:56:08.510Z,100.00
2022-09-03T22:58:44.309Z,100.00
2022-09-03T23:01:16.645Z,100.00
2022-09-03T23:03:59.201Z,100.00
2022-09-03T23:06:33.573Z,100.00
2022-09-03T23:09:09.022Z,100.00
2022-09-03T23:11:39.666Z,100.00
2022-09-03T23:14:09.763Z,100.00
2022-09-03T23:16:46.635Z,100.00
2022-09-03T23:22:03.542Z,100.00
2022-09-03T23:24:59.091Z,100.00
2022-09-03T23:27:27.374Z,100.00
2022-09-03T23:29:55.622Z,100.00
2022-09-03T23:32:22.867Z,100.00
2022-09-03T23:34:49.324Z,100.00
2022-09-03T23:37:34.246Z,100.00
2022-09-03T23:40:01.303Z,100.00
2022-09-03T23:42:30.915Z,100.00
2022-09-03T23:45:16.063Z,100.00
2022-09-03T23:47:51.644Z,100.00
2022-09-03T23:50:27.628Z,100.00
2022-09-03T23:53:03.194Z,100.00
2022-09-03T23:55:37.325Z,100.00
2022-09-03T23:58:15.741Z,100.00
